This is the latest recevied weather packets stored in our database for station/object WD8INF-9. If no packets are shown the sender has not sent any weather packets the latest 10 day(s).
| Time | Temp. | Humidity | Pressure | Rain* | Wind** | Luminosity | Snow |
|---|---|---|---|---|---|---|---|
| 1778252306 | 23.33° C | - | 1012.4 hPa | 0 mm | - | - | - |
| 1778252006 | 23.33° C | - | 1012.3 hPa | 0 mm | - | - | - |
| 1778251706 | 21.67° C | - | 1012.8 hPa | 0 mm | - | - | - |
| 1778251406 | 21.67° C | - | 1012.5 hPa | 0 mm | - | - | - |
| 1778251106 | 22.22° C | - | 1012.9 hPa | 0 mm | - | - | - |
| 1778250805 | 22.78° C | - | 1012.7 hPa | 0 mm | - | - | - |
| 1778250505 | 23.33° C | - | 1012.8 hPa | 0 mm | - | - | - |
| 1778250205 | 23.89° C | - | 1013.1 hPa | 0 mm | - | - | - |
| 1778249903 | 22.22° C | - | 1012.8 hPa | 0 mm | - | - | - |
| 1778249603 | 21.11° C | - | 1013 hPa | 0 mm | - | - | - |
| 1778249303 | 22.22° C | - | 1013 hPa | 0 mm | - | - | - |
| 1778249002 | 22.22° C | - | 1013 hPa | 0 mm | - | - | - |
| 1778248702 | 22.22° C | - | 1012.8 hPa | 0 mm | - | - | - |
| 1778248402 | 22.78° C | - | 1013.1 hPa | 0 mm | - | - | - |
| 1778248101 | 20.56° C | - | 1012.8 hPa | 0 mm | - | - | - |
| 1778247801 | 22.22° C | - | 1013.2 hPa | 0 mm | - | - | - |
| 1778247501 | 21.67° C | - | 1012.9 hPa | 0 mm | - | - | - |
| 1778247201 | 21.11° C | - | 1013.2 hPa | 0 mm | - | - | - |
| 1778246900 | 18.89° C | - | 1012.7 hPa | 0 mm | - | - | - |
| 1778246600 | 19.44° C | - | 1013 hPa | 0 mm | - | - | - |
| 1778246300 | 20.56° C | - | 1013.2 hPa | 0 mm | - | - | - |
| 1778246000 | 19.44° C | - | 1012.7 hPa | 0 mm | - | - | - |
| 1778245699 | 21.11° C | - | 1013 hPa | 0 mm | - | - | - |
| 1778245399 | 20.56° C | - | 1012.9 hPa | 0 mm | - | - | - |
| 1778245098 | 20.56° C | - | 1013.1 hPa | 0 mm | - | - | - |
* Rain since midnight (hover to see other rain measurements)
** Current wind speed in m/s (hover to see current wind gust speed)